createdAt,value
2022-08-05T00:01:35.501Z,47.73
2022-08-05T00:04:08.436Z,48.63
2022-08-05T00:06:36.897Z,47.57
2022-08-05T00:09:13.077Z,48.15
2022-08-05T00:11:48.440Z,47.92
2022-08-05T00:14:18.186Z,48.93
2022-08-05T00:16:52.448Z,48.26
2022-08-05T00:19:23.275Z,49.98
2022-08-05T00:21:54.004Z,49.50
2022-08-05T00:24:24.178Z,50.89
2022-08-05T00:26:53.610Z,50.04
2022-08-05T00:29:25.653Z,49.96
2022-08-05T00:32:13.060Z,50.79
2022-08-05T00:35:03.414Z,50.24
2022-08-05T00:37:50.435Z,50.49
2022-08-05T00:40:26.613Z,49.16
2022-08-05T00:42:58.865Z,50.47
2022-08-05T00:45:38.392Z,51.11
2022-08-05T00:48:09.489Z,49.85
2022-08-05T00:50:41.913Z,50.43
2022-08-05T00:53:45.025Z,49.98
2022-08-05T00:56:01.341Z,51.24
2022-08-05T00:58:29.914Z,49.49
2022-08-05T01:00:58.638Z,50.01
2022-08-05T01:03:31.006Z,51.05
2022-08-05T01:06:03.955Z,50.60
2022-08-05T01:08:43.070Z,51.60
2022-08-05T01:11:22.203Z,49.88
2022-08-05T01:14:17.795Z,51.46
2022-08-05T01:17:09.192Z,52.63
2022-08-05T01:20:01.746Z,51.65
2022-08-05T01:23:14.942Z,51.51
2022-08-05T01:26:03.807Z,53.23
2022-08-05T01:28:50.832Z,53.79
2022-08-05T01:31:26.273Z,52.68
2022-08-05T01:34:33.807Z,53.29
2022-08-05T01:37:24.779Z,53.96
2022-08-05T01:39:59.221Z,51.94
2022-08-05T01:42:29.742Z,49.45
2022-08-05T01:45:02.428Z,49.11
2022-08-05T01:47:39.201Z,51.44
2022-08-05T01:50:15.479Z,51.35
2022-08-05T01:52:50.001Z,50.05
2022-08-05T01:55:22.325Z,51.77
2022-08-05T01:58:29.273Z,50.61
2022-08-05T02:00:48.506Z,51.17
2022-08-05T02:03:32.041Z,54.08
2022-08-05T02:06:33.328Z,51.92
2022-08-05T02:08:58.444Z,51.93
2022-08-05T02:11:57.390Z,52.87
2022-08-05T02:14:49.263Z,51.15
2022-08-05T02:18:30.645Z,50.66
2022-08-05T02:20:27.227Z,50.45
2022-08-05T02:23:01.454Z,50.40
2022-08-05T02:25:49.146Z,50.19
2022-08-05T02:28:29.138Z,50.14
2022-08-05T02:31:02.482Z,50.90
2022-08-05T02:33:38.788Z,49.34
2022-08-05T02:36:15.437Z,49.86
2022-08-05T02:38:52.804Z,49.58
2022-08-05T02:41:28.826Z,50.43
2022-08-05T02:44:13.798Z,49.18
2022-08-05T02:46:58.663Z,49.47
2022-08-05T02:49:36.153Z,49.39
2022-08-05T02:52:11.583Z,49.63
2022-08-05T02:54:50.756Z,50.68
2022-08-05T02:58:11.605Z,50.55
2022-08-05T03:00:13.227Z,49.71
2022-08-05T03:02:44.700Z,50.75
2022-08-05T03:05:15.071Z,50.63
2022-08-05T03:08:06.733Z,50.20
2022-08-05T03:10:32.928Z,50.67
2022-08-05T03:15:29.115Z,50.45
2022-08-05T03:17:58.044Z,50.42
2022-08-05T03:20:27.947Z,49.66
2022-08-05T03:22:57.746Z,49.77
2022-08-05T03:25:33.241Z,51.21
2022-08-05T03:28:18.704Z,52.18
2022-08-05T03:30:49.481Z,50.23
2022-08-05T03:33:18.606Z,52.04
2022-08-05T03:35:48.279Z,51.70
2022-08-05T03:38:32.873Z,51.55
2022-08-05T03:41:03.959Z,52.06
2022-08-05T03:44:09.571Z,54.02
2022-08-05T03:46:26.782Z,52.04
2022-08-05T03:48:59.431Z,53.98
2022-08-05T03:52:48.554Z,53.10
2022-08-05T03:55:07.228Z,51.61
2022-08-05T03:57:42.577Z,51.94
2022-08-05T04:00:16.488Z,50.67
2022-08-05T04:02:57.903Z,50.87
2022-08-05T04:05:33.829Z,50.76
2022-08-05T04:08:14.780Z,49.96
2022-08-05T04:10:55.433Z,50.74
2022-08-05T04:13:24.533Z,50.71
2022-08-05T04:16:04.498Z,50.25
2022-08-05T04:18:34.534Z,50.06
2022-08-05T04:21:04.107Z,50.90
2022-08-05T04:24:05.659Z,51.52
2022-08-05T04:26:24.122Z,50.98
2022-08-05T04:28:53.248Z,50.13
2022-08-05T04:31:22.436Z,51.34
2022-08-05T04:34:31.602Z,51.25
2022-08-05T04:36:49.348Z,50.79
2022-08-05T04:39:19.835Z,51.16
2022-08-05T04:41:48.946Z,51.10
2022-08-05T04:44:21.188Z,50.02
2022-08-05T04:46:52.869Z,50.07
2022-08-05T04:49:24.891Z,50.35
2022-08-05T04:52:09.952Z,51.06
2022-08-05T04:54:42.265Z,51.85
2022-08-05T04:57:10.938Z,50.76
2022-08-05T04:59:40.831Z,51.33
2022-08-05T05:02:36.408Z,50.73
2022-08-05T05:05:01.773Z,50.56
2022-08-05T05:07:35.254Z,50.88
2022-08-05T05:10:06.446Z,51.02
2022-08-05T05:12:37.040Z,50.98
2022-08-05T05:15:10.917Z,51.92
2022-08-05T05:17:55.592Z,52.25
2022-08-05T05:20:28.431Z,52.18
2022-08-05T05:23:01.381Z,52.55
2022-08-05T05:25:40.795Z,52.40
2022-08-05T05:28:12.886Z,53.42
2022-08-05T05:30:41.384Z,53.09
2022-08-05T05:33:16.843Z,51.70
2022-08-05T05:35:47.422Z,51.96
2022-08-05T05:38:27.148Z,51.54
2022-08-05T05:40:57.047Z,51.92
2022-08-05T05:43:56.464Z,50.96
2022-08-05T05:46:17.552Z,51.42
2022-08-05T05:48:49.001Z,51.32
2022-08-05T05:51:19.315Z,51.33
2022-08-05T05:53:57.522Z,52.23
2022-08-05T05:56:33.396Z,52.08
2022-08-05T05:59:05.672Z,51.34
2022-08-05T06:01:57.247Z,50.51
2022-08-05T06:04:26.653Z,50.37
2022-08-05T06:06:55.289Z,50.39
2022-08-05T06:09:50.191Z,50.43
2022-08-05T06:12:18.535Z,51.62
2022-08-05T06:14:48.371Z,51.75
2022-08-05T06:17:22.560Z,51.59
2022-08-05T06:19:56.637Z,51.56
2022-08-05T06:22:33.662Z,52.04
2022-08-05T06:25:59.302Z,53.56
2022-08-05T06:28:11.342Z,52.49
2022-08-05T06:30:41.985Z,52.63
2022-08-05T06:33:11.182Z,54.16
2022-08-05T06:36:07.137Z,52.87
2022-08-05T06:38:37.142Z,52.89
2022-08-05T06:41:07.747Z,52.05
2022-08-05T06:43:59.227Z,51.56
2022-08-05T06:46:30.289Z,51.45
2022-08-05T06:49:01.284Z,51.31
2022-08-05T06:51:31.044Z,53.08
2022-08-05T06:54:01.933Z,52.45
2022-08-05T06:56:33.391Z,52.20
2022-08-05T06:59:09.520Z,51.21
2022-08-05T07:01:40.762Z,52.38
2022-08-05T07:04:11.081Z,52.24
2022-08-05T07:06:42.634Z,53.04
2022-08-05T07:09:11.540Z,52.67
2022-08-05T07:11:46.669Z,52.72
2022-08-05T07:14:39.017Z,52.69
2022-08-05T07:17:58.597Z,51.79
2022-08-05T07:22:45.728Z,52.54
2022-08-05T07:25:22.995Z,53.34
2022-08-05T07:28:11.481Z,52.79
2022-08-05T07:30:40.922Z,51.18
2022-08-05T07:33:16.204Z,51.35
2022-08-05T07:36:01.813Z,51.86
2022-08-05T07:38:43.369Z,50.88
2022-08-05T07:42:09.232Z,50.09
2022-08-05T07:44:14.282Z,49.86
2022-08-05T07:46:49.632Z,50.33
2022-08-05T07:49:20.654Z,49.40
2022-08-05T07:51:53.550Z,49.57
2022-08-05T07:54:30.866Z,49.64
2022-08-05T07:57:18.091Z,49.01
2022-08-05T07:59:53.495Z,49.02
2022-08-05T08:02:30.884Z,49.33
2022-08-05T08:05:16.232Z,49.49
2022-08-05T08:07:59.544Z,48.45
2022-08-05T08:10:30.415Z,47.95
2022-08-05T08:12:58.935Z,48.95
2022-08-05T08:15:37.353Z,49.95
2022-08-05T08:18:21.007Z,48.36
2022-08-05T08:21:03.379Z,48.19
2022-08-05T08:24:02.441Z,48.00
2022-08-05T08:26:29.766Z,46.42
2022-08-05T08:29:21.578Z,45.14
2022-08-05T08:31:48.917Z,44.54
2022-08-05T08:34:29.978Z,44.85
2022-08-05T08:37:03.441Z,44.72
2022-08-05T08:39:37.658Z,44.38
2022-08-05T08:42:34.113Z,44.54
2022-08-05T08:45:24.352Z,45.02
2022-08-05T08:48:12.307Z,44.81
2022-08-05T08:51:22.176Z,44.95
2022-08-05T08:53:36.801Z,45.11
2022-08-05T08:56:06.642Z,45.99
2022-08-05T08:58:43.927Z,45.65
2022-08-05T09:01:18.381Z,46.33
2022-08-05T09:03:54.402Z,44.24
2022-08-05T09:06:29.142Z,44.18
2022-08-05T09:09:00.655Z,44.17
2022-08-05T09:11:53.790Z,44.41
2022-08-05T09:14:57.620Z,43.74
2022-08-05T09:17:16.132Z,42.51
2022-08-05T09:20:05.617Z,42.33
2022-08-05T09:23:18.714Z,42.50
2022-08-05T09:26:00.253Z,41.36
2022-08-05T09:28:34.575Z,41.58
2022-08-05T09:31:22.682Z,42.04
2022-08-05T09:33:59.637Z,42.13
2022-08-05T09:36:55.897Z,42.58
2022-08-05T09:39:45.135Z,42.22
2022-08-05T09:42:23.500Z,41.71
2022-08-05T09:45:17.433Z,43.84
2022-08-05T09:47:55.985Z,41.86
2022-08-05T09:50:44.073Z,41.94
2022-08-05T09:53:23.015Z,42.29
2022-08-05T09:56:04.837Z,44.51
2022-08-05T09:58:42.093Z,45.40
2022-08-05T10:01:22.361Z,45.37
2022-08-05T10:04:11.034Z,44.96
2022-08-05T10:06:59.064Z,44.94
2022-08-05T10:09:29.955Z,44.86
2022-08-05T10:12:18.974Z,41.92
2022-08-05T10:15:20.374Z,40.13
2022-08-05T10:18:16.725Z,39.50
2022-08-05T10:20:58.276Z,39.92
2022-08-05T10:23:56.113Z,40.31
2022-08-05T10:26:51.686Z,39.57
2022-08-05T10:29:23.339Z,39.77
2022-08-05T10:32:51.473Z,38.30
2022-08-05T10:34:41.600Z,38.42
2022-08-05T10:37:12.659Z,36.93
2022-08-05T10:39:59.018Z,37.14
2022-08-05T10:42:36.927Z,36.77
2022-08-05T10:45:20.892Z,37.39
2022-08-05T10:48:30.327Z,37.45
2022-08-05T10:51:22.314Z,36.36
2022-08-05T10:53:51.248Z,35.93
2022-08-05T10:56:25.927Z,34.26
2022-08-05T10:58:55.055Z,34.88
2022-08-05T11:02:04.665Z,33.76
2022-08-05T11:04:28.443Z,34.32
2022-08-05T11:07:05.479Z,34.34
2022-08-05T11:09:50.859Z,32.86
2022-08-05T11:12:37.269Z,33.42
2022-08-05T11:16:00.236Z,33.32
2022-08-05T11:18:35.131Z,32.73
2022-08-05T11:21:11.332Z,33.17
2022-08-05T11:24:05.316Z,33.41
2022-08-05T11:26:43.792Z,31.86
2022-08-05T11:29:42.746Z,31.61
2022-08-05T11:32:28.643Z,30.98
2022-08-05T11:34:57.596Z,30.18
2022-08-05T11:38:30.913Z,30.49
2022-08-05T11:41:15.429Z,30.76
2022-08-05T11:44:12.456Z,31.18
2022-08-05T11:47:11.824Z,31.08
2022-08-05T11:49:49.836Z,30.64
2022-08-05T11:52:29.412Z,31.14
2022-08-05T11:54:59.562Z,31.65
2022-08-05T11:58:08.504Z,31.12
2022-08-05T12:00:30.426Z,32.11
2022-08-05T12:03:16.439Z,31.26
2022-08-05T12:06:05.807Z,31.85
2022-08-05T12:08:52.344Z,31.87
2022-08-05T12:11:40.467Z,33.75
2022-08-05T12:14:10.558Z,32.89
2022-08-05T12:16:45.616Z,32.40
2022-08-05T12:20:26.488Z,32.60
2022-08-05T12:22:09.499Z,32.78
2022-08-05T12:24:49.708Z,32.94
2022-08-05T12:27:26.599Z,32.86
2022-08-05T12:30:10.407Z,32.93
2022-08-05T12:32:50.457Z,32.29
2022-08-05T12:35:21.661Z,32.41
2022-08-05T12:37:53.299Z,32.87
2022-08-05T12:40:28.734Z,31.37
2022-08-05T12:42:58.276Z,31.19
2022-08-05T12:45:42.403Z,30.76
2022-08-05T12:48:17.554Z,30.33
2022-08-05T12:52:14.493Z,29.59
2022-08-05T12:54:26.484Z,29.25
2022-08-05T12:57:03.689Z,29.75
2022-08-05T13:00:08.845Z,29.96
2022-08-05T13:02:32.037Z,29.78
2022-08-05T13:05:00.716Z,29.29
2022-08-05T13:07:57.826Z,30.06
2022-08-05T13:10:20.461Z,29.29
2022-08-05T13:12:57.323Z,29.73
2022-08-05T13:15:41.401Z,28.84
2022-08-05T13:18:21.073Z,28.65
2022-08-05T13:20:52.566Z,29.29
2022-08-05T13:23:22.683Z,28.39
2022-08-05T13:25:59.425Z,27.55
2022-08-05T13:28:29.734Z,28.40
2022-08-05T13:31:03.284Z,27.69
2022-08-05T13:34:22.859Z,27.71
2022-08-05T13:36:30.862Z,27.59
2022-08-05T13:38:59.487Z,27.72
2022-08-05T13:41:35.845Z,27.34
2022-08-05T13:44:06.366Z,27.03
2022-08-05T13:46:43.734Z,25.61
2022-08-05T13:49:23.415Z,26.13
2022-08-05T13:51:52.077Z,25.12
2022-08-05T13:54:24.894Z,25.91
2022-08-05T13:56:53.836Z,26.27
2022-08-05T13:59:24.245Z,26.30
2022-08-05T14:02:00.152Z,25.98
2022-08-05T14:04:54.011Z,25.60
2022-08-05T14:08:02.705Z,26.34
2022-08-05T14:10:18.849Z,26.48
2022-08-05T14:12:57.226Z,26.67
2022-08-05T14:16:07.500Z,26.91
2022-08-05T14:18:18.506Z,27.15
2022-08-05T14:20:52.903Z,26.47
2022-08-05T14:23:25.819Z,27.09
2022-08-05T14:25:58.640Z,27.09
2022-08-05T14:28:29.494Z,26.84
2022-08-05T14:30:59.748Z,27.10
2022-08-05T14:33:32.616Z,28.40
2022-08-05T14:36:21.296Z,27.88
2022-08-05T14:38:51.381Z,28.24
2022-08-05T14:41:20.104Z,28.98
2022-08-05T14:44:01.957Z,28.68
2022-08-05T14:46:37.867Z,28.06
2022-08-05T14:49:08.169Z,28.02
2022-08-05T14:51:38.943Z,27.54
2022-08-05T14:54:26.903Z,28.04
2022-08-05T14:56:58.907Z,27.77
2022-08-05T14:59:29.709Z,28.02
2022-08-05T15:02:15.668Z,27.73
2022-08-05T15:04:47.639Z,27.58
2022-08-05T15:08:12.251Z,28.59
2022-08-05T15:10:09.802Z,29.22
2022-08-05T15:12:59.800Z,29.22
2022-08-05T15:15:55.203Z,29.24
2022-08-05T15:18:17.265Z,29.53
2022-08-05T15:20:46.607Z,29.83
2022-08-05T15:23:16.293Z,29.47
2022-08-05T15:25:53.053Z,30.62
2022-08-05T15:28:38.632Z,29.78
2022-08-05T15:31:11.638Z,30.53
2022-08-05T15:34:05.171Z,30.30
2022-08-05T15:36:28.681Z,29.67
2022-08-05T15:40:58.831Z,28.54
2022-08-05T15:41:57.312Z,28.13
2022-08-05T15:44:28.262Z,29.12
2022-08-05T15:47:01.117Z,30.01
2022-08-05T15:49:48.171Z,29.88
2022-08-05T15:52:51.921Z,30.21
2022-08-05T15:55:10.437Z,30.01
2022-08-05T15:57:45.993Z,29.98
2022-08-05T16:00:32.652Z,29.33
2022-08-05T16:03:07.359Z,29.69
2022-08-05T16:05:36.062Z,29.66
2022-08-05T16:08:07.465Z,30.39
2022-08-05T16:10:36.808Z,30.65
2022-08-05T16:13:05.441Z,30.71
2022-08-05T16:15:34.081Z,30.06
2022-08-05T16:18:04.412Z,30.52
2022-08-05T16:20:38.113Z,30.66
2022-08-05T16:23:08.663Z,31.24
2022-08-05T16:25:38.007Z,31.40
2022-08-05T16:28:09.732Z,31.16
2022-08-05T16:30:41.480Z,31.59
2022-08-05T16:33:10.211Z,32.37
2022-08-05T16:35:42.191Z,31.72
2022-08-05T16:38:23.674Z,31.53
2022-08-05T16:41:00.912Z,32.48
2022-08-05T16:43:34.600Z,31.51
2022-08-05T16:46:23.944Z,32.17
2022-08-05T16:48:53.117Z,32.35
2022-08-05T16:51:24.516Z,34.41
2022-08-05T16:54:04.019Z,34.45
2022-08-05T16:56:38.109Z,34.98
2022-08-05T16:59:10.590Z,35.54
2022-08-05T17:01:53.630Z,34.91
2022-08-05T17:04:26.707Z,34.72
2022-08-05T17:07:00.626Z,33.61
2022-08-05T17:09:31.056Z,32.87
2022-08-05T17:12:22.697Z,32.78
2022-08-05T17:15:09.278Z,33.54
2022-08-05T17:17:42.454Z,33.58
2022-08-05T17:20:12.176Z,34.06
2022-08-05T17:22:43.467Z,34.79
2022-08-05T17:25:33.870Z,35.05
2022-08-05T17:28:02.113Z,33.78
2022-08-05T17:30:31.654Z,33.83
2022-08-05T17:33:00.448Z,34.25
2022-08-05T17:36:06.862Z,34.40
2022-08-05T17:38:17.639Z,34.72
2022-08-05T17:40:46.162Z,35.43
2022-08-05T17:43:16.131Z,35.33
2022-08-05T17:45:44.569Z,33.40
2022-08-05T17:48:13.339Z,33.99
2022-08-05T17:50:44.369Z,33.45
2022-08-05T17:53:12.835Z,34.43
2022-08-05T17:55:43.157Z,34.07
2022-08-05T17:58:13.770Z,33.98
2022-08-05T18:00:47.519Z,33.95
2022-08-05T18:03:48.510Z,33.54
2022-08-05T18:06:12.299Z,33.76
2022-08-05T18:08:52.141Z,33.81
2022-08-05T18:11:32.979Z,33.64
2022-08-05T18:14:13.467Z,33.42
2022-08-05T18:16:51.868Z,33.78
2022-08-05T18:19:22.747Z,33.54
2022-08-05T18:22:09.725Z,34.07
2022-08-05T18:24:41.347Z,33.45
2022-08-05T18:27:12.389Z,33.50
2022-08-05T18:29:41.505Z,32.95
2022-08-05T18:32:12.729Z,33.39
2022-08-05T18:34:42.837Z,34.22
2022-08-05T18:37:12.604Z,34.78
2022-08-05T18:41:50.554Z,35.17
2022-08-05T18:42:34.303Z,35.69
2022-08-05T18:45:04.572Z,35.45
2022-08-05T18:47:35.162Z,34.72
2022-08-05T18:50:42.112Z,35.12
2022-08-05T18:53:22.736Z,34.45
2022-08-05T18:55:53.541Z,35.12
2022-08-05T18:58:28.574Z,35.73
2022-08-05T19:00:57.760Z,34.12
2022-08-05T19:03:55.614Z,35.23
2022-08-05T19:06:22.034Z,35.33
2022-08-05T19:09:02.555Z,36.11
2022-08-05T19:11:37.195Z,35.54
2022-08-05T19:14:53.537Z,35.75
2022-08-05T19:17:11.622Z,36.38
2022-08-05T19:19:46.580Z,35.34
2022-08-05T19:22:17.232Z,35.98
2022-08-05T19:24:55.892Z,35.24
2022-08-05T19:27:27.733Z,36.64
2022-08-05T19:29:58.922Z,36.55
2022-08-05T19:32:27.838Z,35.63
2022-08-05T19:34:57.774Z,36.11
2022-08-05T19:37:29.945Z,35.53
2022-08-05T19:40:15.490Z,34.63
2022-08-05T19:43:04.890Z,34.72
2022-08-05T19:45:33.352Z,35.69
2022-08-05T19:48:06.270Z,35.85
2022-08-05T19:50:36.621Z,35.98
2022-08-05T19:53:09.444Z,35.59
2022-08-05T19:56:14.916Z,35.62
2022-08-05T19:58:30.112Z,36.38
2022-08-05T20:00:58.931Z,35.24
2022-08-05T20:03:38.774Z,35.83
2022-08-05T20:06:15.525Z,36.67
2022-08-05T20:08:47.468Z,36.51
2022-08-05T20:11:22.639Z,36.56
2022-08-05T20:13:59.050Z,36.94
2022-08-05T20:16:40.172Z,36.69
2022-08-05T20:19:09.046Z,36.80
2022-08-05T20:21:38.563Z,36.41
2022-08-05T20:24:07.563Z,37.29
2022-08-05T20:26:39.977Z,37.23
2022-08-05T20:29:26.459Z,36.88
2022-08-05T20:31:58.378Z,36.56
2022-08-05T20:34:28.395Z,36.85
2022-08-05T20:36:56.839Z,36.98
2022-08-05T20:39:25.855Z,37.51
2022-08-05T20:42:04.971Z,37.91
2022-08-05T20:44:37.762Z,38.55
2022-08-05T20:47:07.645Z,37.04
2022-08-05T20:49:39.288Z,36.59
2022-08-05T20:52:10.481Z,37.68
2022-08-05T20:54:59.591Z,37.61
2022-08-05T20:57:43.963Z,38.69
2022-08-05T21:00:36.336Z,38.58
2022-08-05T21:03:07.413Z,38.29
2022-08-05T21:05:54.449Z,39.31
2022-08-05T21:08:26.481Z,38.92
2022-08-05T21:11:10.023Z,38.71
2022-08-05T21:13:55.682Z,38.13
2022-08-05T21:16:29.806Z,38.20
2022-08-05T21:19:00.835Z,38.07
2022-08-05T21:21:44.566Z,38.42
2022-08-05T21:24:19.992Z,38.62
2022-08-05T21:26:58.283Z,37.74
2022-08-05T21:29:31.434Z,38.10
2022-08-05T21:32:02.799Z,38.59
2022-08-05T21:34:31.796Z,38.26
2022-08-05T21:37:05.018Z,38.74
2022-08-05T21:39:34.686Z,38.69
2022-08-05T21:42:07.060Z,38.76
2022-08-05T21:44:55.541Z,38.32
2022-08-05T21:47:55.018Z,38.43
2022-08-05T21:50:15.800Z,38.71
2022-08-05T21:52:47.209Z,39.03
2022-08-05T21:55:17.950Z,38.41
2022-08-05T21:58:06.528Z,38.70
2022-08-05T22:00:35.072Z,38.92
2022-08-05T22:03:04.450Z,39.92
2022-08-05T22:05:48.642Z,39.78
2022-08-05T22:08:22.082Z,39.52
2022-08-05T22:10:53.339Z,39.85
2022-08-05T22:14:18.276Z,40.32
2022-08-05T22:16:39.579Z,40.42
2022-08-05T22:18:59.028Z,40.73
2022-08-05T22:21:27.597Z,40.45
2022-08-05T22:24:40.632Z,41.05
2022-08-05T22:27:22.485Z,40.39
2022-08-05T22:29:54.305Z,40.79
2022-08-05T22:32:23.148Z,39.99
2022-08-05T22:34:52.587Z,40.34
2022-08-05T22:37:21.305Z,40.69
2022-08-05T22:39:51.102Z,40.31
2022-08-05T22:42:26.260Z,40.86
2022-08-05T22:44:56.603Z,40.47
2022-08-05T22:47:29.115Z,40.61
2022-08-05T22:50:20.112Z,41.11
2022-08-05T22:52:51.433Z,41.36
2022-08-05T22:55:22.826Z,41.20
2022-08-05T22:57:53.368Z,41.14
2022-08-05T23:00:23.298Z,41.06
2022-08-05T23:02:53.442Z,41.46
2022-08-05T23:05:23.181Z,41.50
2022-08-05T23:07:52.374Z,41.22
2022-08-05T23:10:24.066Z,41.42
2022-08-05T23:12:55.091Z,41.69
2022-08-05T23:15:29.588Z,41.57
2022-08-05T23:18:06.151Z,41.52
2022-08-05T23:20:40.434Z,40.68
2022-08-05T23:23:11.790Z,40.48
2022-08-05T23:25:50.961Z,41.98
2022-08-05T23:28:28.804Z,42.13
2022-08-05T23:31:15.652Z,42.67
2022-08-05T23:34:06.044Z,42.52
2022-08-05T23:36:39.766Z,42.42
2022-08-05T23:39:16.365Z,42.67
2022-08-05T23:41:53.905Z,42.17
2022-08-05T23:44:25.029Z,41.74
2022-08-05T23:46:56.527Z,42.63
2022-08-05T23:49:35.894Z,42.91
2022-08-05T23:52:25.198Z,43.21
2022-08-05T23:54:54.869Z,43.57
2022-08-05T23:57:28.344Z,43.82
